sensor_id;sensor_type;location;lat;lon;timestamp;P1;durP1;ratioP1;P2;durP2;ratioP2
38266;SDS011;24063;51.794;19.578;2023-01-19T00:00:30;24.58;;;23.03;;
38266;SDS011;24063;51.794;19.578;2023-01-19T00:01:53;23.61;;;22.70;;
38266;SDS011;24063;51.794;19.578;2023-01-19T00:02:55;22.67;;;21.74;;
38266;SDS011;24063;51.794;19.578;2023-01-19T00:03:57;26.23;;;24.75;;
38266;SDS011;24063;51.794;19.578;2023-01-19T00:04:58;26.66;;;24.52;;
38266;SDS011;24063;51.794;19.578;2023-01-19T00:06:07;24.55;;;22.67;;
38266;SDS011;24063;51.794;19.578;2023-01-19T00:07:09;23.63;;;21.94;;
38266;SDS011;24063;51.794;19.578;2023-01-19T00:08:12;22.76;;;21.25;;
38266;SDS011;24063;51.794;19.578;2023-01-19T00:09:18;24.10;;;22.90;;
38266;SDS011;24063;51.794;19.578;2023-01-19T00:10:20;26.03;;;24.36;;
38266;SDS011;24063;51.794;19.578;2023-01-19T00:11:22;26.99;;;24.97;;
38266;SDS011;24063;51.794;19.578;2023-01-19T00:12:24;28.45;;;26.25;;
38266;SDS011;24063;51.794;19.578;2023-01-19T00:13:27;26.99;;;25.39;;
38266;SDS011;24063;51.794;19.578;2023-01-19T00:14:29;24.83;;;23.60;;
38266;SDS011;24063;51.794;19.578;2023-01-19T00:15:31;26.38;;;25.22;;
38266;SDS011;24063;51.794;19.578;2023-01-19T00:16:33;25.43;;;24.58;;
38266;SDS011;24063;51.794;19.578;2023-01-19T00:17:35;23.95;;;23.11;;
38266;SDS011;24063;51.794;19.578;2023-01-19T00:18:37;24.44;;;23.81;;
38266;SDS011;24063;51.794;19.578;2023-01-19T00:19:39;24.69;;;24.01;;
38266;SDS011;24063;51.794;19.578;2023-01-19T00:20:41;24.23;;;23.34;;
38266;SDS011;24063;51.794;19.578;2023-01-19T00:21:46;23.71;;;22.89;;
38266;SDS011;24063;51.794;19.578;2023-01-19T00:22:48;23.21;;;22.22;;
38266;SDS011;24063;51.794;19.578;2023-01-19T00:23:51;22.42;;;21.66;;
38266;SDS011;24063;51.794;19.578;2023-01-19T00:24:53;22.33;;;21.69;;
38266;SDS011;24063;51.794;19.578;2023-01-19T00:25:55;21.86;;;21.14;;
38266;SDS011;24063;51.794;19.578;2023-01-19T00:26:57;23.32;;;22.57;;
38266;SDS011;24063;51.794;19.578;2023-01-19T00:27:59;22.84;;;22.33;;
38266;SDS011;24063;51.794;19.578;2023-01-19T00:29:02;23.06;;;22.23;;
38266;SDS011;24063;51.794;19.578;2023-01-19T00:30:10;22.51;;;21.61;;
38266;SDS011;24063;51.794;19.578;2023-01-19T00:31:25;23.10;;;22.30;;
38266;SDS011;24063;51.794;19.578;2023-01-19T00:32:30;23.16;;;22.38;;
38266;SDS011;24063;51.794;19.578;2023-01-19T00:33:32;23.69;;;22.36;;
38266;SDS011;24063;51.794;19.578;2023-01-19T00:34:34;23.25;;;22.04;;
38266;SDS011;24063;51.794;19.578;2023-01-19T00:35:40;23.83;;;22.79;;
38266;SDS011;24063;51.794;19.578;2023-01-19T00:36:43;23.55;;;22.50;;
38266;SDS011;24063;51.794;19.578;2023-01-19T00:37:45;26.07;;;24.76;;
38266;SDS011;24063;51.794;19.578;2023-01-19T00:38:47;26.26;;;25.62;;
38266;SDS011;24063;51.794;19.578;2023-01-19T00:39:49;24.76;;;24.18;;
38266;SDS011;24063;51.794;19.578;2023-01-19T00:40:51;25.93;;;25.02;;
38266;SDS011;24063;51.794;19.578;2023-01-19T00:41:53;25.59;;;25.02;;
38266;SDS011;24063;51.794;19.578;2023-01-19T00:43:14;28.17;;;27.23;;
38266;SDS011;24063;51.794;19.578;2023-01-19T00:44:16;30.29;;;28.47;;
38266;SDS011;24063;51.794;19.578;2023-01-19T00:45:19;30.93;;;29.05;;
38266;SDS011;24063;51.794;19.578;2023-01-19T00:46:22;28.55;;;27.51;;
38266;SDS011;24063;51.794;19.578;2023-01-19T00:47:27;27.36;;;26.33;;
38266;SDS011;24063;51.794;19.578;2023-01-19T00:48:29;27.31;;;26.45;;
38266;SDS011;24063;51.794;19.578;2023-01-19T00:49:31;27.33;;;26.30;;
38266;SDS011;24063;51.794;19.578;2023-01-19T00:50:33;28.25;;;26.81;;
38266;SDS011;24063;51.794;19.578;2023-01-19T00:51:35;27.95;;;26.43;;
38266;SDS011;24063;51.794;19.578;2023-01-19T00:52:38;28.16;;;26.81;;
38266;SDS011;24063;51.794;19.578;2023-01-19T00:53:41;27.20;;;26.21;;
38266;SDS011;24063;51.794;19.578;2023-01-19T00:54:43;25.95;;;25.49;;
38266;SDS011;24063;51.794;19.578;2023-01-19T00:55:45;26.00;;;25.60;;
38266;SDS011;24063;51.794;19.578;2023-01-19T00:56:47;26.69;;;25.62;;
38266;SDS011;24063;51.794;19.578;2023-01-19T00:57:49;26.10;;;25.22;;
38266;SDS011;24063;51.794;19.578;2023-01-19T00:58:51;27.78;;;26.44;;
38266;SDS011;24063;51.794;19.578;2023-01-19T00:59:52;29.14;;;27.36;;
38266;SDS011;24063;51.794;19.578;2023-01-19T01:00:54;28.65;;;27.27;;
38266;SDS011;24063;51.794;19.578;2023-01-19T01:01:58;28.25;;;27.37;;
38266;SDS011;24063;51.794;19.578;2023-01-19T01:03:00;27.81;;;27.02;;
38266;SDS011;24063;51.794;19.578;2023-01-19T01:04:03;26.75;;;25.95;;
38266;SDS011;24063;51.794;19.578;2023-01-19T01:05:05;25.69;;;24.98;;
38266;SDS011;24063;51.794;19.578;2023-01-19T01:06:09;25.18;;;24.67;;
38266;SDS011;24063;51.794;19.578;2023-01-19T01:07:10;25.40;;;24.70;;
38266;SDS011;24063;51.794;19.578;2023-01-19T01:08:12;24.68;;;24.01;;
38266;SDS011;24063;51.794;19.578;2023-01-19T01:09:24;24.66;;;23.65;;
38266;SDS011;24063;51.794;19.578;2023-01-19T01:11:15;25.67;;;24.74;;
38266;SDS011;24063;51.794;19.578;2023-01-19T01:13:35;27.71;;;26.51;;
38266;SDS011;24063;51.794;19.578;2023-01-19T01:15:22;28.35;;;26.82;;
38266;SDS011;24063;51.794;19.578;2023-01-19T01:16:59;27.82;;;26.37;;
38266;SDS011;24063;51.794;19.578;2023-01-19T01:18:01;28.51;;;27.21;;
38266;SDS011;24063;51.794;19.578;2023-01-19T01:19:03;29.96;;;28.12;;
38266;SDS011;24063;51.794;19.578;2023-01-19T01:20:05;28.79;;;26.90;;
38266;SDS011;24063;51.794;19.578;2023-01-19T01:21:07;28.35;;;26.71;;
38266;SDS011;24063;51.794;19.578;2023-01-19T01:22:09;29.31;;;27.37;;
38266;SDS011;24063;51.794;19.578;2023-01-19T01:23:12;27.67;;;26.22;;
38266;SDS011;24063;51.794;19.578;2023-01-19T01:24:14;29.17;;;27.46;;
38266;SDS011;24063;51.794;19.578;2023-01-19T01:25:17;29.33;;;27.34;;
38266;SDS011;24063;51.794;19.578;2023-01-19T01:26:23;28.93;;;27.61;;
38266;SDS011;24063;51.794;19.578;2023-01-19T01:27:28;27.88;;;26.63;;
38266;SDS011;24063;51.794;19.578;2023-01-19T01:28:30;28.80;;;27.63;;
38266;SDS011;24063;51.794;19.578;2023-01-19T01:29:32;29.41;;;28.05;;
38266;SDS011;24063;51.794;19.578;2023-01-19T01:30:35;30.39;;;28.49;;
38266;SDS011;24063;51.794;19.578;2023-01-19T01:31:41;31.35;;;29.09;;
38266;SDS011;24063;51.794;19.578;2023-01-19T01:32:43;29.68;;;28.29;;
38266;SDS011;24063;51.794;19.578;2023-01-19T01:33:45;29.65;;;28.20;;
38266;SDS011;24063;51.794;19.578;2023-01-19T01:34:47;30.04;;;28.99;;
38266;SDS011;24063;51.794;19.578;2023-01-19T01:35:49;30.20;;;29.31;;
38266;SDS011;24063;51.794;19.578;2023-01-19T01:36:50;34.63;;;32.75;;
38266;SDS011;24063;51.794;19.578;2023-01-19T01:37:56;33.38;;;31.68;;
38266;SDS011;24063;51.794;19.578;2023-01-19T01:38:59;33.53;;;32.60;;
38266;SDS011;24063;51.794;19.578;2023-01-19T01:40:01;35.30;;;33.68;;
38266;SDS011;24063;51.794;19.578;2023-01-19T01:41:04;33.53;;;31.74;;
38266;SDS011;24063;51.794;19.578;2023-01-19T01:42:17;33.37;;;31.52;;
38266;SDS011;24063;51.794;19.578;2023-01-19T01:43:20;33.20;;;31.67;;
38266;SDS011;24063;51.794;19.578;2023-01-19T01:45:50;30.53;;;29.70;;
38266;SDS011;24063;51.794;19.578;2023-01-19T01:46:54;30.27;;;29.12;;
38266;SDS011;24063;51.794;19.578;2023-01-19T01:47:59;32.19;;;30.88;;
38266;SDS011;24063;51.794;19.578;2023-01-19T01:49:11;32.07;;;30.74;;
38266;SDS011;24063;51.794;19.578;2023-01-19T01:50:19;31.63;;;30.17;;
38266;SDS011;24063;51.794;19.578;2023-01-19T01:52:35;30.28;;;29.32;;
38266;SDS011;24063;51.794;19.578;2023-01-19T01:55:19;30.80;;;29.24;;
38266;SDS011;24063;51.794;19.578;2023-01-19T01:56:25;30.63;;;28.87;;
38266;SDS011;24063;51.794;19.578;2023-01-19T01:57:34;29.67;;;28.22;;
38266;SDS011;24063;51.794;19.578;2023-01-19T01:58:39;30.05;;;28.42;;
38266;SDS011;24063;51.794;19.578;2023-01-19T01:59:44;29.40;;;28.25;;
38266;SDS011;24063;51.794;19.578;2023-01-19T02:00:50;28.79;;;27.43;;
38266;SDS011;24063;51.794;19.578;2023-01-19T02:02:18;29.50;;;27.83;;
38266;SDS011;24063;51.794;19.578;2023-01-19T02:03:42;29.04;;;27.97;;
38266;SDS011;24063;51.794;19.578;2023-01-19T02:04:45;28.49;;;27.31;;
38266;SDS011;24063;51.794;19.578;2023-01-19T02:05:52;29.08;;;27.87;;
38266;SDS011;24063;51.794;19.578;2023-01-19T02:06:59;28.90;;;27.91;;
38266;SDS011;24063;51.794;19.578;2023-01-19T02:08:42;28.19;;;27.25;;
38266;SDS011;24063;51.794;19.578;2023-01-19T02:10:12;30.95;;;29.64;;
38266;SDS011;24063;51.794;19.578;2023-01-19T02:11:33;30.55;;;29.63;;
38266;SDS011;24063;51.794;19.578;2023-01-19T02:12:55;28.06;;;26.99;;
38266;SDS011;24063;51.794;19.578;2023-01-19T02:14:17;28.76;;;27.19;;
38266;SDS011;24063;51.794;19.578;2023-01-19T02:15:19;27.82;;;26.70;;
38266;SDS011;24063;51.794;19.578;2023-01-19T02:16:21;28.65;;;27.48;;
38266;SDS011;24063;51.794;19.578;2023-01-19T02:17:24;28.97;;;27.48;;
38266;SDS011;24063;51.794;19.578;2023-01-19T02:18:27;29.11;;;27.87;;
38266;SDS011;24063;51.794;19.578;2023-01-19T02:19:33;28.64;;;27.56;;
38266;SDS011;24063;51.794;19.578;2023-01-19T02:20:46;28.04;;;27.00;;
38266;SDS011;24063;51.794;19.578;2023-01-19T02:22:01;28.28;;;27.37;;
38266;SDS011;24063;51.794;19.578;2023-01-19T02:23:15;27.22;;;26.42;;
38266;SDS011;24063;51.794;19.578;2023-01-19T02:24:30;27.96;;;27.05;;
38266;SDS011;24063;51.794;19.578;2023-01-19T02:25:33;26.48;;;25.56;;
38266;SDS011;24063;51.794;19.578;2023-01-19T02:27:42;27.39;;;26.31;;
38266;SDS011;24063;51.794;19.578;2023-01-19T02:28:48;27.25;;;26.35;;
38266;SDS011;24063;51.794;19.578;2023-01-19T02:29:58;26.96;;;26.20;;
38266;SDS011;24063;51.794;19.578;2023-01-19T02:31:04;27.83;;;27.03;;
38266;SDS011;24063;51.794;19.578;2023-01-19T02:32:07;28.23;;;27.56;;
38266;SDS011;24063;51.794;19.578;2023-01-19T02:33:09;28.33;;;27.61;;
38266;SDS011;24063;51.794;19.578;2023-01-19T02:34:12;27.93;;;27.34;;
38266;SDS011;24063;51.794;19.578;2023-01-19T02:35:17;28.26;;;27.47;;
38266;SDS011;24063;51.794;19.578;2023-01-19T02:36:25;28.46;;;27.58;;
38266;SDS011;24063;51.794;19.578;2023-01-19T02:37:34;30.16;;;28.72;;
38266;SDS011;24063;51.794;19.578;2023-01-19T02:38:40;28.63;;;27.77;;
38266;SDS011;24063;51.794;19.578;2023-01-19T02:39:51;27.52;;;26.75;;
38266;SDS011;24063;51.794;19.578;2023-01-19T02:40:57;27.74;;;26.91;;
38266;SDS011;24063;51.794;19.578;2023-01-19T02:42:07;27.27;;;26.64;;
38266;SDS011;24063;51.794;19.578;2023-01-19T02:43:18;27.08;;;26.53;;
38266;SDS011;24063;51.794;19.578;2023-01-19T02:44:21;27.54;;;26.84;;
38266;SDS011;24063;51.794;19.578;2023-01-19T02:45:25;28.18;;;27.60;;
38266;SDS011;24063;51.794;19.578;2023-01-19T02:46:28;28.39;;;27.48;;
38266;SDS011;24063;51.794;19.578;2023-01-19T02:47:36;29.01;;;28.23;;
38266;SDS011;24063;51.794;19.578;2023-01-19T02:48:50;28.00;;;27.55;;
38266;SDS011;24063;51.794;19.578;2023-01-19T02:49:55;28.15;;;27.68;;
38266;SDS011;24063;51.794;19.578;2023-01-19T02:50:59;27.62;;;27.07;;
38266;SDS011;24063;51.794;19.578;2023-01-19T02:52:13;26.27;;;25.78;;
38266;SDS011;24063;51.794;19.578;2023-01-19T02:54:45;27.44;;;26.74;;
38266;SDS011;24063;51.794;19.578;2023-01-19T02:56:08;25.56;;;24.92;;
38266;SDS011;24063;51.794;19.578;2023-01-19T02:57:25;27.33;;;26.60;;
38266;SDS011;24063;51.794;19.578;2023-01-19T03:01:30;27.92;;;27.13;;
38266;SDS011;24063;51.794;19.578;2023-01-19T03:04:26;27.34;;;26.50;;
38266;SDS011;24063;51.794;19.578;2023-01-19T03:06:35;26.75;;;25.88;;
38266;SDS011;24063;51.794;19.578;2023-01-19T03:07:10;26.82;;;26.17;;
38266;SDS011;24063;51.794;19.578;2023-01-19T03:09:33;26.02;;;25.39;;
38266;SDS011;24063;51.794;19.578;2023-01-19T03:12:05;26.15;;;25.52;;
38266;SDS011;24063;51.794;19.578;2023-01-19T03:13:26;25.75;;;25.10;;
38266;SDS011;24063;51.794;19.578;2023-01-19T03:14:51;27.67;;;26.72;;
38266;SDS011;24063;51.794;19.578;2023-01-19T03:16:12;26.32;;;25.55;;
38266;SDS011;24063;51.794;19.578;2023-01-19T03:17:23;27.42;;;26.59;;
38266;SDS011;24063;51.794;19.578;2023-01-19T03:18:27;24.99;;;24.34;;
38266;SDS011;24063;51.794;19.578;2023-01-19T03:19:35;26.99;;;26.50;;
38266;SDS011;24063;51.794;19.578;2023-01-19T03:20:43;29.16;;;28.37;;
38266;SDS011;24063;51.794;19.578;2023-01-19T03:21:51;30.96;;;29.28;;
38266;SDS011;24063;51.794;19.578;2023-01-19T03:23:03;28.59;;;27.41;;
38266;SDS011;24063;51.794;19.578;2023-01-19T03:24:10;27.95;;;27.06;;
38266;SDS011;24063;51.794;19.578;2023-01-19T03:25:16;29.05;;;28.52;;
38266;SDS011;24063;51.794;19.578;2023-01-19T03:26:23;28.29;;;27.66;;
38266;SDS011;24063;51.794;19.578;2023-01-19T03:27:31;28.01;;;27.44;;
38266;SDS011;24063;51.794;19.578;2023-01-19T03:28:41;28.64;;;27.84;;
38266;SDS011;24063;51.794;19.578;2023-01-19T03:29:51;26.97;;;26.46;;
38266;SDS011;24063;51.794;19.578;2023-01-19T03:30:59;27.83;;;27.30;;
38266;SDS011;24063;51.794;19.578;2023-01-19T03:32:08;29.90;;;28.85;;
38266;SDS011;24063;51.794;19.578;2023-01-19T03:33:15;30.43;;;29.52;;
38266;SDS011;24063;51.794;19.578;2023-01-19T03:34:29;32.08;;;30.23;;
38266;SDS011;24063;51.794;19.578;2023-01-19T03:35:33;30.44;;;28.99;;
38266;SDS011;24063;51.794;19.578;2023-01-19T03:37:46;29.12;;;28.18;;
38266;SDS011;24063;51.794;19.578;2023-01-19T03:38:51;29.41;;;28.47;;
38266;SDS011;24063;51.794;19.578;2023-01-19T03:39:57;29.26;;;28.44;;
38266;SDS011;24063;51.794;19.578;2023-01-19T03:41:01;29.44;;;28.30;;
38266;SDS011;24063;51.794;19.578;2023-01-19T03:42:08;28.87;;;27.84;;
38266;SDS011;24063;51.794;19.578;2023-01-19T03:43:15;28.51;;;27.68;;
38266;SDS011;24063;51.794;19.578;2023-01-19T03:44:20;28.19;;;27.20;;
38266;SDS011;24063;51.794;19.578;2023-01-19T03:45:26;28.20;;;27.54;;
38266;SDS011;24063;51.794;19.578;2023-01-19T03:46:29;28.77;;;27.74;;
38266;SDS011;24063;51.794;19.578;2023-01-19T03:47:32;28.77;;;27.58;;
38266;SDS011;24063;51.794;19.578;2023-01-19T03:48:36;27.82;;;27.02;;
38266;SDS011;24063;51.794;19.578;2023-01-19T03:49:40;28.19;;;27.12;;
38266;SDS011;24063;51.794;19.578;2023-01-19T03:50:46;28.61;;;27.54;;
38266;SDS011;24063;51.794;19.578;2023-01-19T03:51:48;29.36;;;28.74;;
38266;SDS011;24063;51.794;19.578;2023-01-19T03:53:00;28.74;;;28.25;;
38266;SDS011;24063;51.794;19.578;2023-01-19T03:54:12;28.80;;;27.99;;
38266;SDS011;24063;51.794;19.578;2023-01-19T03:55:14;30.67;;;29.76;;
38266;SDS011;24063;51.794;19.578;2023-01-19T03:56:24;29.79;;;28.89;;
38266;SDS011;24063;51.794;19.578;2023-01-19T03:57:26;29.85;;;28.70;;
38266;SDS011;24063;51.794;19.578;2023-01-19T03:58:29;30.48;;;29.50;;
38266;SDS011;24063;51.794;19.578;2023-01-19T03:59:31;29.50;;;28.62;;
38266;SDS011;24063;51.794;19.578;2023-01-19T04:00:33;28.94;;;28.22;;
38266;SDS011;24063;51.794;19.578;2023-01-19T04:01:37;28.58;;;27.71;;
38266;SDS011;24063;51.794;19.578;2023-01-19T04:02:39;29.29;;;28.60;;
38266;SDS011;24063;51.794;19.578;2023-01-19T04:03:41;29.12;;;28.72;;
38266;SDS011;24063;51.794;19.578;2023-01-19T04:04:43;29.74;;;28.79;;
38266;SDS011;24063;51.794;19.578;2023-01-19T04:05:45;28.72;;;28.01;;
38266;SDS011;24063;51.794;19.578;2023-01-19T04:06:47;30.33;;;29.32;;
38266;SDS011;24063;51.794;19.578;2023-01-19T04:07:50;30.40;;;29.17;;
38266;SDS011;24063;51.794;19.578;2023-01-19T04:08:52;29.86;;;28.67;;
38266;SDS011;24063;51.794;19.578;2023-01-19T04:09:55;29.20;;;28.21;;
38266;SDS011;24063;51.794;19.578;2023-01-19T04:10:57;28.98;;;28.05;;
38266;SDS011;24063;51.794;19.578;2023-01-19T04:11:59;30.95;;;29.84;;
38266;SDS011;24063;51.794;19.578;2023-01-19T04:13:02;30.71;;;29.81;;
38266;SDS011;24063;51.794;19.578;2023-01-19T04:14:05;30.50;;;29.61;;
38266;SDS011;24063;51.794;19.578;2023-01-19T04:15:07;30.04;;;28.91;;
38266;SDS011;24063;51.794;19.578;2023-01-19T04:16:09;30.48;;;29.49;;
38266;SDS011;24063;51.794;19.578;2023-01-19T04:17:12;29.93;;;29.39;;
38266;SDS011;24063;51.794;19.578;2023-01-19T04:18:14;29.74;;;28.94;;
38266;SDS011;24063;51.794;19.578;2023-01-19T04:19:16;29.60;;;28.86;;
38266;SDS011;24063;51.794;19.578;2023-01-19T04:20:18;29.25;;;28.60;;
38266;SDS011;24063;51.794;19.578;2023-01-19T04:21:22;30.42;;;29.58;;
38266;SDS011;24063;51.794;19.578;2023-01-19T04:22:24;30.23;;;29.50;;
38266;SDS011;24063;51.794;19.578;2023-01-19T04:23:26;29.74;;;28.93;;
38266;SDS011;24063;51.794;19.578;2023-01-19T04:24:29;29.81;;;28.99;;
38266;SDS011;24063;51.794;19.578;2023-01-19T04:25:31;29.62;;;28.88;;
38266;SDS011;24063;51.794;19.578;2023-01-19T04:26:33;30.69;;;29.64;;
38266;SDS011;24063;51.794;19.578;2023-01-19T04:27:35;29.70;;;28.87;;
38266;SDS011;24063;51.794;19.578;2023-01-19T04:28:38;29.82;;;29.14;;
38266;SDS011;24063;51.794;19.578;2023-01-19T04:29:39;29.19;;;28.41;;
38266;SDS011;24063;51.794;19.578;2023-01-19T04:30:41;29.65;;;28.87;;
38266;SDS011;24063;51.794;19.578;2023-01-19T04:31:43;31.10;;;30.05;;
38266;SDS011;24063;51.794;19.578;2023-01-19T04:32:45;54.55;;;53.31;;
38266;SDS011;24063;51.794;19.578;2023-01-19T04:33:47;41.56;;;40.90;;
38266;SDS011;24063;51.794;19.578;2023-01-19T04:34:49;35.81;;;35.23;;
38266;SDS011;24063;51.794;19.578;2023-01-19T04:35:51;32.67;;;31.98;;
38266;SDS011;24063;51.794;19.578;2023-01-19T04:36:55;31.28;;;30.43;;
38266;SDS011;24063;51.794;19.578;2023-01-19T04:37:56;31.11;;;29.90;;
38266;SDS011;24063;51.794;19.578;2023-01-19T04:38:58;29.22;;;28.41;;
38266;SDS011;24063;51.794;19.578;2023-01-19T04:40:00;30.43;;;29.38;;
38266;SDS011;24063;51.794;19.578;2023-01-19T04:41:02;30.42;;;29.12;;
38266;SDS011;24063;51.794;19.578;2023-01-19T04:42:04;30.71;;;29.33;;
38266;SDS011;24063;51.794;19.578;2023-01-19T04:43:06;31.43;;;29.97;;
38266;SDS011;24063;51.794;19.578;2023-01-19T04:44:09;30.24;;;29.48;;
38266;SDS011;24063;51.794;19.578;2023-01-19T04:45:12;30.45;;;29.21;;
38266;SDS011;24063;51.794;19.578;2023-01-19T04:46:14;31.11;;;30.02;;
38266;SDS011;24063;51.794;19.578;2023-01-19T04:47:16;30.02;;;29.26;;
38266;SDS011;24063;51.794;19.578;2023-01-19T04:48:18;30.68;;;29.67;;
38266;SDS011;24063;51.794;19.578;2023-01-19T04:49:20;36.24;;;35.11;;
38266;SDS011;24063;51.794;19.578;2023-01-19T04:50:22;33.74;;;32.83;;
38266;SDS011;24063;51.794;19.578;2023-01-19T04:51:25;35.46;;;34.70;;
38266;SDS011;24063;51.794;19.578;2023-01-19T04:52:30;34.41;;;33.25;;
38266;SDS011;24063;51.794;19.578;2023-01-19T04:53:36;31.68;;;30.94;;
38266;SDS011;24063;51.794;19.578;2023-01-19T04:54:38;32.02;;;31.21;;
38266;SDS011;24063;51.794;19.578;2023-01-19T04:55:40;31.21;;;30.36;;
38266;SDS011;24063;51.794;19.578;2023-01-19T04:56:42;32.72;;;31.76;;
38266;SDS011;24063;51.794;19.578;2023-01-19T04:57:44;33.22;;;32.19;;
38266;SDS011;24063;51.794;19.578;2023-01-19T04:58:46;34.70;;;33.50;;
38266;SDS011;24063;51.794;19.578;2023-01-19T04:59:48;33.61;;;32.31;;
38266;SDS011;24063;51.794;19.578;2023-01-19T05:00:50;35.28;;;33.34;;
38266;SDS011;24063;51.794;19.578;2023-01-19T05:01:53;33.26;;;31.91;;
38266;SDS011;24063;51.794;19.578;2023-01-19T05:02:56;32.73;;;31.78;;
38266;SDS011;24063;51.794;19.578;2023-01-19T05:03:59;32.05;;;31.01;;
38266;SDS011;24063;51.794;19.578;2023-01-19T05:05:01;32.84;;;31.76;;
38266;SDS011;24063;51.794;19.578;2023-01-19T05:06:04;32.36;;;31.51;;
38266;SDS011;24063;51.794;19.578;2023-01-19T05:07:06;32.04;;;31.18;;
38266;SDS011;24063;51.794;19.578;2023-01-19T05:08:08;36.12;;;34.94;;
38266;SDS011;24063;51.794;19.578;2023-01-19T05:09:10;46.31;;;42.74;;
38266;SDS011;24063;51.794;19.578;2023-01-19T05:10:14;52.31;;;48.29;;
38266;SDS011;24063;51.794;19.578;2023-01-19T05:11:16;52.21;;;48.52;;
38266;SDS011;24063;51.794;19.578;2023-01-19T05:12:18;49.17;;;44.97;;
38266;SDS011;24063;51.794;19.578;2023-01-19T05:13:21;37.90;;;35.84;;
38266;SDS011;24063;51.794;19.578;2023-01-19T05:14:22;37.31;;;35.63;;
38266;SDS011;24063;51.794;19.578;2023-01-19T05:15:24;39.64;;;37.45;;
38266;SDS011;24063;51.794;19.578;2023-01-19T05:16:26;35.73;;;34.30;;
38266;SDS011;24063;51.794;19.578;2023-01-19T05:17:28;38.91;;;36.84;;
38266;SDS011;24063;51.794;19.578;2023-01-19T05:18:30;38.26;;;36.74;;
38266;SDS011;24063;51.794;19.578;2023-01-19T05:19:36;37.69;;;36.55;;
38266;SDS011;24063;51.794;19.578;2023-01-19T05:20:39;39.94;;;38.39;;
38266;SDS011;24063;51.794;19.578;2023-01-19T05:21:41;51.31;;;48.01;;
38266;SDS011;24063;51.794;19.578;2023-01-19T05:22:50;61.15;;;55.57;;
38266;SDS011;24063;51.794;19.578;2023-01-19T05:23:53;45.47;;;42.56;;
38266;SDS011;24063;51.794;19.578;2023-01-19T05:24:55;42.44;;;40.56;;
38266;SDS011;24063;51.794;19.578;2023-01-19T05:26:00;41.99;;;39.91;;
38266;SDS011;24063;51.794;19.578;2023-01-19T05:27:03;39.40;;;37.74;;
38266;SDS011;24063;51.794;19.578;2023-01-19T05:28:05;41.83;;;39.37;;
38266;SDS011;24063;51.794;19.578;2023-01-19T05:29:07;40.20;;;38.05;;
38266;SDS011;24063;51.794;19.578;2023-01-19T05:30:11;38.70;;;36.93;;
38266;SDS011;24063;51.794;19.578;2023-01-19T05:31:14;37.02;;;34.97;;
38266;SDS011;24063;51.794;19.578;2023-01-19T05:32:19;36.23;;;34.69;;
38266;SDS011;24063;51.794;19.578;2023-01-19T05:33:21;36.04;;;34.41;;
38266;SDS011;24063;51.794;19.578;2023-01-19T05:34:23;35.75;;;34.13;;
38266;SDS011;24063;51.794;19.578;2023-01-19T05:35:26;33.09;;;31.94;;
38266;SDS011;24063;51.794;19.578;2023-01-19T05:36:37;32.02;;;31.24;;
38266;SDS011;24063;51.794;19.578;2023-01-19T05:37:39;33.50;;;32.23;;
38266;SDS011;24063;51.794;19.578;2023-01-19T05:38:41;32.58;;;31.79;;
38266;SDS011;24063;51.794;19.578;2023-01-19T05:39:43;33.60;;;32.82;;
38266;SDS011;24063;51.794;19.578;2023-01-19T05:40:45;34.15;;;33.01;;
38266;SDS011;24063;51.794;19.578;2023-01-19T05:41:47;34.86;;;33.34;;
38266;SDS011;24063;51.794;19.578;2023-01-19T05:42:49;33.44;;;31.80;;
38266;SDS011;24063;51.794;19.578;2023-01-19T05:43:51;33.14;;;31.62;;
38266;SDS011;24063;51.794;19.578;2023-01-19T05:44:53;33.66;;;32.08;;
38266;SDS011;24063;51.794;19.578;2023-01-19T05:45:55;32.15;;;31.08;;
38266;SDS011;24063;51.794;19.578;2023-01-19T05:46:57;32.17;;;31.00;;
38266;SDS011;24063;51.794;19.578;2023-01-19T05:47:59;32.07;;;31.20;;
38266;SDS011;24063;51.794;19.578;2023-01-19T05:49:01;33.16;;;31.93;;
38266;SDS011;24063;51.794;19.578;2023-01-19T05:50:05;36.57;;;34.33;;
38266;SDS011;24063;51.794;19.578;2023-01-19T05:51:08;38.99;;;37.25;;
38266;SDS011;24063;51.794;19.578;2023-01-19T05:52:10;38.67;;;36.33;;
38266;SDS011;24063;51.794;19.578;2023-01-19T05:53:11;36.00;;;34.66;;
38266;SDS011;24063;51.794;19.578;2023-01-19T05:54:13;43.72;;;42.12;;
38266;SDS011;24063;51.794;19.578;2023-01-19T05:55:16;53.05;;;50.60;;
38266;SDS011;24063;51.794;19.578;2023-01-19T05:56:18;47.49;;;44.93;;
38266;SDS011;24063;51.794;19.578;2023-01-19T05:57:20;40.42;;;38.53;;
38266;SDS011;24063;51.794;19.578;2023-01-19T05:58:23;35.84;;;34.82;;
38266;SDS011;24063;51.794;19.578;2023-01-19T05:59:25;34.45;;;33.17;;
38266;SDS011;24063;51.794;19.578;2023-01-19T06:00:27;35.20;;;34.05;;
38266;SDS011;24063;51.794;19.578;2023-01-19T06:01:29;33.16;;;32.12;;
38266;SDS011;24063;51.794;19.578;2023-01-19T06:02:31;34.76;;;33.74;;
38266;SDS011;24063;51.794;19.578;2023-01-19T06:03:34;36.82;;;35.61;;
38266;SDS011;24063;51.794;19.578;2023-01-19T06:04:38;36.67;;;35.27;;
38266;SDS011;24063;51.794;19.578;2023-01-19T06:05:40;33.75;;;32.47;;
38266;SDS011;24063;51.794;19.578;2023-01-19T06:06:42;32.88;;;32.09;;
38266;SDS011;24063;51.794;19.578;2023-01-19T06:07:44;32.43;;;31.98;;
38266;SDS011;24063;51.794;19.578;2023-01-19T06:08:46;34.80;;;34.10;;
38266;SDS011;24063;51.794;19.578;2023-01-19T06:09:48;35.24;;;34.40;;
38266;SDS011;24063;51.794;19.578;2023-01-19T06:10:50;35.39;;;34.30;;
38266;SDS011;24063;51.794;19.578;2023-01-19T06:11:51;34.51;;;33.82;;
38266;SDS011;24063;51.794;19.578;2023-01-19T06:12:56;33.51;;;33.03;;
38266;SDS011;24063;51.794;19.578;2023-01-19T06:13:58;32.63;;;32.01;;
38266;SDS011;24063;51.794;19.578;2023-01-19T06:15:00;36.93;;;35.91;;
38266;SDS011;24063;51.794;19.578;2023-01-19T06:16:02;44.87;;;43.74;;
38266;SDS011;24063;51.794;19.578;2023-01-19T06:17:04;38.81;;;37.81;;
38266;SDS011;24063;51.794;19.578;2023-01-19T06:18:07;41.76;;;40.41;;
38266;SDS011;24063;51.794;19.578;2023-01-19T06:19:09;38.91;;;37.60;;
38266;SDS011;24063;51.794;19.578;2023-01-19T06:20:11;34.99;;;33.86;;
38266;SDS011;24063;51.794;19.578;2023-01-19T06:21:16;33.63;;;32.82;;
38266;SDS011;24063;51.794;19.578;2023-01-19T06:22:18;33.90;;;32.72;;
38266;SDS011;24063;51.794;19.578;2023-01-19T06:23:20;34.50;;;33.55;;
38266;SDS011;24063;51.794;19.578;2023-01-19T06:24:22;33.83;;;33.07;;
38266;SDS011;24063;51.794;19.578;2023-01-19T06:25:24;33.69;;;32.89;;
38266;SDS011;24063;51.794;19.578;2023-01-19T06:26:26;33.35;;;32.76;;
38266;SDS011;24063;51.794;19.578;2023-01-19T06:27:28;34.27;;;33.58;;
38266;SDS011;24063;51.794;19.578;2023-01-19T06:28:30;34.43;;;33.72;;
38266;SDS011;24063;51.794;19.578;2023-01-19T06:29:32;33.54;;;32.93;;
38266;SDS011;24063;51.794;19.578;2023-01-19T06:30:34;34.06;;;33.17;;
38266;SDS011;24063;51.794;19.578;2023-01-19T06:31:36;33.18;;;32.32;;